LTAR

Details ICAO LTAR (VAS)
Name SIVAS
Region Turkey
Timezone Europe/Istanbul (UTC+3.0)
Plans Departing 32
Arriving 37
Stats Elevation 5,236 ft / 1,596 m (AMSL)
Location 39.813834° 36.903500°
Runways 1
Magnetic Variation 5.968° E
Sunrise 2018-06-25 02:06:32 UTC / 2018-06-25 05:06:32 Local
Sunset 2018-06-25 17:05:49 UTC / 2018-06-25 20:05:49 Local
Advertisement - Login to hide

Runways

ID Width Length Bearing (true) Bearing (mag) Surface Threshold Offset Overrun Length
01 98 ft / 30 m 12,521 ft / 3,816 m 17.81° 11.84° Concrete 0 ft / 0 m 690 ft / 210 m
19 98 ft / 30 m 12,521 ft / 3,816 m 197.82° 191.85° Concrete 0 ft / 0 m 0 ft / 0 m

Map

Weather


0- 5 10 15 20 25 30 35+ Temperature / ° C

Clouds and Precipitation
Forecast for 2018-06-25 12:00 UTC. Updated 39 minutes ago

Ground ~20,000 ft ~40,000 ft Winds

METAR

LTAR 250950Z 01007KT 310V080 9999 SCT040 22/14 Q1017

TAF

Not found

Frequencies

Ground 121.90 MHz GND
Tower 118.10 MHz TWR
Warning: Do not use this data for real-world aviation or navigation. No guarantee of current accuracy is given.